createdAt,value
2023-05-09T00:01:19.857Z,10.91
2023-05-09T00:03:46.302Z,10.94
2023-05-09T00:06:13.438Z,11.00
2023-05-09T00:08:41.688Z,11.07
2023-05-09T00:11:08.045Z,10.91
2023-05-09T00:13:34.704Z,10.77
2023-05-09T00:16:01.797Z,10.81
2023-05-09T00:18:29.892Z,10.90
2023-05-09T00:20:56.658Z,10.83
2023-05-09T00:23:23.938Z,10.82
2023-05-09T00:25:50.736Z,10.81
2023-05-09T00:28:17.169Z,10.91
2023-05-09T00:30:44.695Z,10.92
2023-05-09T00:33:11.179Z,10.95
2023-05-09T00:35:37.617Z,10.88
2023-05-09T00:38:04.414Z,10.86
2023-05-09T00:40:31.474Z,10.86
2023-05-09T00:43:00.316Z,10.81
2023-05-09T00:45:26.751Z,10.84
2023-05-09T00:47:53.478Z,10.77
2023-05-09T00:50:20.546Z,10.67
2023-05-09T00:52:46.959Z,10.57
2023-05-09T00:55:13.797Z,10.46
2023-05-09T00:57:40.911Z,10.39
2023-05-09T01:00:12.813Z,10.37
2023-05-09T01:02:51.541Z,10.37
2023-05-09T01:05:18.995Z,10.33
2023-05-09T01:08:07.929Z,10.26
2023-05-09T01:10:54.118Z,10.28
2023-05-09T01:13:28.621Z,10.15
2023-05-09T01:16:16.603Z,10.01
2023-05-09T01:18:46.427Z,9.94
2023-05-09T01:21:28.061Z,9.85
2023-05-09T01:24:13.281Z,9.78
2023-05-09T01:27:33.961Z,9.73
2023-05-09T01:30:05.068Z,9.64
2023-05-09T01:32:36.280Z,9.62
2023-05-09T01:35:05.066Z,9.60
2023-05-09T01:37:34.208Z,9.51
2023-05-09T01:40:08.578Z,9.42
2023-05-09T01:42:45.394Z,9.35
2023-05-09T01:45:14.561Z,9.34
2023-05-09T01:47:41.905Z,9.23
2023-05-09T01:50:11.407Z,9.17
2023-05-09T01:52:40.436Z,9.12
2023-05-09T01:55:08.521Z,9.07
2023-05-09T01:57:37.308Z,8.98
2023-05-09T02:00:05.550Z,8.90
2023-05-09T02:02:32.737Z,8.83
2023-05-09T02:05:00.231Z,8.81
2023-05-09T02:07:29.629Z,8.76
2023-05-09T02:09:58.097Z,8.72
2023-05-09T02:12:24.536Z,8.78
2023-05-09T02:14:51.648Z,8.81
2023-05-09T02:17:18.790Z,8.79
2023-05-09T02:19:45.474Z,8.79
2023-05-09T02:22:13.406Z,8.83
2023-05-09T02:24:40.846Z,8.90
2023-05-09T02:27:09.069Z,8.73
2023-05-09T02:29:40.904Z,8.58
2023-05-09T02:32:16.315Z,8.63
2023-05-09T02:34:45.725Z,8.79
2023-05-09T02:37:13.339Z,8.82
2023-05-09T02:39:39.800Z,8.81
2023-05-09T02:42:08.392Z,8.81
2023-05-09T02:44:34.872Z,8.68
2023-05-09T02:47:02.682Z,8.74
2023-05-09T02:49:32.484Z,8.71
2023-05-09T02:51:59.568Z,8.82
2023-05-09T02:54:25.981Z,8.87
2023-05-09T02:56:53.091Z,8.88
2023-05-09T02:59:20.252Z,8.93
2023-05-09T03:01:46.796Z,8.98
2023-05-09T03:04:13.798Z,8.99
2023-05-09T03:06:40.276Z,9.01
2023-05-09T03:09:07.070Z,9.08
2023-05-09T03:11:34.080Z,9.12
2023-05-09T03:14:00.401Z,9.08
2023-05-09T03:16:26.818Z,9.06
2023-05-09T03:18:53.595Z,9.02
2023-05-09T03:21:19.993Z,9.02
2023-05-09T03:23:46.330Z,8.99
2023-05-09T03:26:13.185Z,9.00
2023-05-09T03:28:39.652Z,8.97
2023-05-09T03:31:06.378Z,9.02
2023-05-09T03:33:33.505Z,9.06
2023-05-09T03:35:59.820Z,9.12
2023-05-09T03:38:26.149Z,9.22
2023-05-09T03:40:54.052Z,9.23
2023-05-09T03:43:20.404Z,9.24
2023-05-09T03:45:46.713Z,9.31
2023-05-09T03:48:13.701Z,9.32
2023-05-09T03:50:40.861Z,9.24
2023-05-09T03:53:07.272Z,9.32
2023-05-09T03:55:34.100Z,9.32
2023-05-09T03:58:00.540Z,9.20
2023-05-09T04:00:27.063Z,9.14
2023-05-09T04:02:53.957Z,9.06
2023-05-09T04:05:20.894Z,9.04
2023-05-09T04:07:47.239Z,9.03
2023-05-09T04:10:15.627Z,9.01
2023-05-09T04:12:42.020Z,9.01
2023-05-09T04:15:09.074Z,9.09
2023-05-09T04:17:35.860Z,9.24
2023-05-09T04:20:02.993Z,9.29
2023-05-09T04:22:29.332Z,9.43
2023-05-09T04:24:56.552Z,9.42
2023-05-09T04:27:23.677Z,9.56
2023-05-09T04:29:50.073Z,9.69
2023-05-09T04:32:16.824Z,9.74
2023-05-09T04:34:43.198Z,9.85
2023-05-09T04:37:09.766Z,9.82
2023-05-09T04:39:36.561Z,9.82
2023-05-09T04:42:02.923Z,9.80
2023-05-09T04:44:33.301Z,9.91
2023-05-09T04:47:00.002Z,9.84
2023-05-09T04:49:26.437Z,9.63
2023-05-09T04:51:52.753Z,9.70
2023-05-09T04:54:19.534Z,9.77
2023-05-09T04:56:46.807Z,9.79
2023-05-09T04:59:14.192Z,10.04
2023-05-09T05:01:41.229Z,10.14
2023-05-09T05:04:07.594Z,10.53
2023-05-09T05:06:33.908Z,10.80
2023-05-09T05:09:00.644Z,10.85
2023-05-09T05:11:27.028Z,11.04
2023-05-09T05:13:53.515Z,10.96
2023-05-09T05:16:20.964Z,10.99
2023-05-09T05:18:47.340Z,11.02
2023-05-09T05:21:13.698Z,10.94
2023-05-09T05:23:40.434Z,10.90
2023-05-09T05:26:06.778Z,10.67
2023-05-09T05:28:33.122Z,10.56
2023-05-09T05:30:59.882Z,10.93
2023-05-09T05:33:26.282Z,10.96
2023-05-09T05:35:52.602Z,11.04
2023-05-09T05:38:19.412Z,11.03
2023-05-09T05:40:45.803Z,11.39
2023-05-09T05:43:12.122Z,11.01
2023-05-09T05:45:39.075Z,11.23
2023-05-09T05:48:05.672Z,11.20
2023-05-09T05:50:32.132Z,11.41
2023-05-09T05:52:58.852Z,11.32
2023-05-09T05:55:25.238Z,11.56
2023-05-09T05:57:51.597Z,11.57
2023-05-09T06:00:18.424Z,11.62
2023-05-09T06:02:45.151Z,12.02
2023-05-09T06:05:11.808Z,12.58
2023-05-09T06:07:38.682Z,13.71
2023-05-09T06:10:05.647Z,14.90
2023-05-09T06:12:32.056Z,16.04
2023-05-09T06:14:58.775Z,16.31
2023-05-09T06:17:25.240Z,15.22
2023-05-09T06:19:51.634Z,15.02
2023-05-09T06:22:18.354Z,14.84
2023-05-09T06:24:44.682Z,14.82
2023-05-09T06:27:11.191Z,14.13
2023-05-09T06:29:37.980Z,14.99
2023-05-09T06:32:04.565Z,16.01
2023-05-09T06:34:31.018Z,16.47
2023-05-09T06:36:57.685Z,18.39
2023-05-09T06:39:24.049Z,17.56
2023-05-09T06:41:50.483Z,17.52
2023-05-09T06:44:17.242Z,16.98
2023-05-09T06:46:43.588Z,17.25
2023-05-09T06:49:10.829Z,17.58
2023-05-09T06:51:37.561Z,18.74
2023-05-09T06:54:04.099Z,19.97
2023-05-09T06:56:31.463Z,20.46
2023-05-09T06:58:58.604Z,21.62
2023-05-09T07:01:24.973Z,20.63
2023-05-09T07:03:52.105Z,20.38
2023-05-09T07:06:18.962Z,20.91
2023-05-09T07:08:45.845Z,19.45
2023-05-09T07:11:12.201Z,17.66
2023-05-09T07:13:38.808Z,18.02
2023-05-09T07:16:05.587Z,18.02
2023-05-09T07:18:31.992Z,17.31
2023-05-09T07:20:58.661Z,19.44
2023-05-09T07:23:25.985Z,19.70
2023-05-09T07:25:58.766Z,19.90
2023-05-09T07:28:25.933Z,21.01
2023-05-09T07:30:52.326Z,20.46
2023-05-09T07:33:19.029Z,21.43
2023-05-09T07:35:45.372Z,23.05
2023-05-09T07:38:12.444Z,20.01
2023-05-09T07:40:39.228Z,20.78
2023-05-09T07:43:05.558Z,21.23
2023-05-09T07:45:32.393Z,20.52
2023-05-09T07:47:59.163Z,20.41
2023-05-09T07:50:26.034Z,20.82
2023-05-09T07:52:52.659Z,20.82
2023-05-09T07:55:19.156Z,23.48
2023-05-09T07:57:45.545Z,22.83
2023-05-09T08:00:12.513Z,22.49
2023-05-09T08:02:39.049Z,20.59
2023-05-09T08:05:06.526Z,19.70
2023-05-09T08:07:32.877Z,20.92
2023-05-09T08:09:59.614Z,20.79
2023-05-09T08:12:25.987Z,21.12
2023-05-09T08:14:52.345Z,21.84
2023-05-09T08:17:18.974Z,22.63
2023-05-09T08:19:45.328Z,22.89
2023-05-09T08:22:20.729Z,21.57
2023-05-09T08:24:47.717Z,21.27
2023-05-09T08:27:14.312Z,22.76
2023-05-09T08:29:41.496Z,23.51
2023-05-09T08:32:08.774Z,23.05
2023-05-09T08:34:35.605Z,21.73
2023-05-09T08:37:03.493Z,22.77
2023-05-09T08:39:30.880Z,23.47
2023-05-09T08:42:01.851Z,24.97
2023-05-09T08:44:29.954Z,21.47
2023-05-09T08:47:01.981Z,21.66
2023-05-09T08:49:28.735Z,21.53
2023-05-09T08:51:56.078Z,21.00
2023-05-09T08:54:24.295Z,21.96
2023-05-09T08:56:51.814Z,21.35
2023-05-09T08:59:18.913Z,21.74
2023-05-09T09:01:45.578Z,23.43
2023-05-09T09:04:12.001Z,23.62
2023-05-09T09:06:39.515Z,23.33
2023-05-09T09:09:08.485Z,22.54
2023-05-09T09:11:35.812Z,22.40
2023-05-09T09:14:10.163Z,23.64
2023-05-09T09:16:36.942Z,23.24
2023-05-09T09:19:09.788Z,23.35
2023-05-09T09:21:36.518Z,22.41
2023-05-09T09:24:03.278Z,21.08
2023-05-09T09:26:32.404Z,21.31
2023-05-09T09:28:58.840Z,22.55
2023-05-09T09:31:27.389Z,21.25
2023-05-09T09:34:03.587Z,21.98
2023-05-09T09:36:32.355Z,20.76
2023-05-09T09:39:00.468Z,19.19
2023-05-09T09:41:40.528Z,18.98
2023-05-09T09:44:18.327Z,22.80
2023-05-09T09:46:49.122Z,24.38
2023-05-09T09:49:17.084Z,25.94
2023-05-09T09:51:44.272Z,24.67
2023-05-09T09:54:13.263Z,23.89
2023-05-09T09:56:45.527Z,24.96
2023-05-09T09:59:23.698Z,21.39
2023-05-09T10:02:02.922Z,23.61
2023-05-09T10:04:36.898Z,21.99
2023-05-09T10:07:05.934Z,22.11
2023-05-09T10:09:34.065Z,23.65
2023-05-09T10:12:06.567Z,23.99
2023-05-09T10:14:35.603Z,24.51
2023-05-09T10:17:04.387Z,24.91
2023-05-09T10:19:31.813Z,24.85
2023-05-09T10:22:05.258Z,23.43
2023-05-09T10:24:42.554Z,26.03
2023-05-09T10:27:13.608Z,25.03
2023-05-09T10:29:55.308Z,25.07
2023-05-09T10:32:27.814Z,24.84
2023-05-09T10:35:01.208Z,22.46
2023-05-09T10:37:28.482Z,22.39
2023-05-09T10:39:55.577Z,23.06
2023-05-09T10:42:23.844Z,23.12
2023-05-09T10:44:51.788Z,22.36
2023-05-09T10:47:18.956Z,24.48
2023-05-09T10:49:45.995Z,25.37
2023-05-09T10:52:12.773Z,24.83
2023-05-09T10:54:39.220Z,24.64
2023-05-09T10:57:08.990Z,24.14
2023-05-09T10:59:36.444Z,20.77
2023-05-09T11:02:04.108Z,20.71
2023-05-09T11:04:32.429Z,21.32
2023-05-09T11:07:00.524Z,23.41
2023-05-09T11:09:30.466Z,24.29
2023-05-09T11:12:06.294Z,25.14
2023-05-09T11:14:34.052Z,23.27
2023-05-09T11:17:03.055Z,25.13
2023-05-09T11:19:37.082Z,26.58
2023-05-09T11:22:34.167Z,25.45
2023-05-09T11:25:04.957Z,24.81
2023-05-09T11:27:49.419Z,23.27
2023-05-09T11:30:19.144Z,22.58
2023-05-09T11:32:53.852Z,23.61
2023-05-09T11:35:23.989Z,24.84
2023-05-09T11:37:54.909Z,25.33
2023-05-09T11:40:22.444Z,24.75
2023-05-09T11:42:55.423Z,24.86
2023-05-09T11:45:26.706Z,25.60
2023-05-09T11:47:54.293Z,25.80
2023-05-09T11:50:21.567Z,26.31
2023-05-09T11:52:48.783Z,27.05
2023-05-09T11:55:17.664Z,28.02
2023-05-09T11:57:49.373Z,27.36
2023-05-09T12:00:20.977Z,26.97
2023-05-09T12:02:47.800Z,25.91
2023-05-09T12:05:16.259Z,26.01
2023-05-09T12:07:43.557Z,22.76
2023-05-09T12:10:14.440Z,23.31
2023-05-09T12:12:49.402Z,23.39
2023-05-09T12:15:17.845Z,25.22
2023-05-09T12:17:47.136Z,22.27
2023-05-09T12:20:14.695Z,21.72
2023-05-09T12:22:43.631Z,23.70
2023-05-09T12:25:11.684Z,24.22
2023-05-09T12:27:39.811Z,24.43
2023-05-09T12:30:09.872Z,26.30
2023-05-09T12:32:39.274Z,25.88
2023-05-09T12:35:10.923Z,23.68
2023-05-09T12:37:37.743Z,22.10
2023-05-09T12:40:05.348Z,22.90
2023-05-09T12:42:33.136Z,24.98
2023-05-09T12:45:01.931Z,26.02
2023-05-09T12:47:31.668Z,26.66
2023-05-09T12:50:06.418Z,27.70
2023-05-09T12:53:01.379Z,27.84
2023-05-09T12:55:30.732Z,27.84
2023-05-09T12:57:59.809Z,27.89
2023-05-09T13:00:26.285Z,28.08
2023-05-09T13:02:53.065Z,28.13
2023-05-09T13:05:22.139Z,27.07
2023-05-09T13:07:52.392Z,26.19
2023-05-09T13:10:28.749Z,24.71
2023-05-09T13:12:55.124Z,24.20
2023-05-09T13:15:23.464Z,25.13
2023-05-09T13:17:51.436Z,23.09
2023-05-09T13:20:19.198Z,22.65
2023-05-09T13:22:46.780Z,24.03
2023-05-09T13:25:13.616Z,24.80
2023-05-09T13:27:40.000Z,25.50
2023-05-09T13:30:10.479Z,25.23
2023-05-09T13:32:36.904Z,24.45
2023-05-09T13:35:06.456Z,24.05
2023-05-09T13:37:33.371Z,24.61
2023-05-09T13:39:59.702Z,24.03
2023-05-09T13:42:26.587Z,24.06
2023-05-09T13:44:53.476Z,25.10
2023-05-09T13:47:19.799Z,23.45
2023-05-09T13:49:46.131Z,21.66
2023-05-09T13:52:14.664Z,24.73
2023-05-09T13:54:41.132Z,22.52
2023-05-09T13:57:07.833Z,23.44
2023-05-09T13:59:34.918Z,22.54
2023-05-09T14:02:01.463Z,22.70
2023-05-09T14:04:29.541Z,22.11
2023-05-09T14:06:56.451Z,22.33
2023-05-09T14:09:23.216Z,23.25
2023-05-09T14:11:53.037Z,24.12
2023-05-09T14:14:21.666Z,24.91
2023-05-09T14:16:48.401Z,25.05
2023-05-09T14:19:15.818Z,24.15
2023-05-09T14:21:43.720Z,24.41
2023-05-09T14:24:14.242Z,24.37
2023-05-09T14:26:42.173Z,25.33
2023-05-09T14:29:08.899Z,25.72
2023-05-09T14:31:35.268Z,25.24
2023-05-09T14:34:01.696Z,24.24
2023-05-09T14:36:29.129Z,25.10
2023-05-09T14:38:55.509Z,24.08
2023-05-09T14:41:22.692Z,23.83
2023-05-09T14:43:49.098Z,23.86
2023-05-09T14:46:15.539Z,24.04
2023-05-09T14:48:42.320Z,24.46
2023-05-09T14:51:08.690Z,23.71
2023-05-09T14:53:39.910Z,22.84
2023-05-09T14:56:10.756Z,23.51
2023-05-09T14:58:37.423Z,23.25
2023-05-09T15:01:05.039Z,22.93
2023-05-09T15:03:31.576Z,23.26
2023-05-09T15:06:01.437Z,23.49
2023-05-09T15:08:28.534Z,23.88
2023-05-09T15:10:54.918Z,23.55
2023-05-09T15:13:21.616Z,22.78
2023-05-09T15:15:48.711Z,22.51
2023-05-09T15:18:16.841Z,23.03
2023-05-09T15:20:43.459Z,22.31
2023-05-09T15:23:11.235Z,22.79
2023-05-09T15:25:37.680Z,22.92
2023-05-09T15:28:04.259Z,23.35
2023-05-09T15:30:30.963Z,22.69
2023-05-09T15:32:57.445Z,22.78
2023-05-09T15:35:23.965Z,22.63
2023-05-09T15:37:50.763Z,22.74
2023-05-09T15:40:17.302Z,23.22
2023-05-09T15:42:43.848Z,22.48
2023-05-09T15:45:10.751Z,23.06
2023-05-09T15:47:37.236Z,23.37
2023-05-09T15:50:04.446Z,23.80
2023-05-09T15:52:31.305Z,23.35
2023-05-09T15:54:57.964Z,23.30
2023-05-09T15:57:24.964Z,23.07
2023-05-09T15:59:54.653Z,22.96
2023-05-09T16:02:22.531Z,22.14
2023-05-09T16:04:48.951Z,22.23
2023-05-09T16:07:15.334Z,21.70
2023-05-09T16:09:43.450Z,21.33
2023-05-09T16:12:09.927Z,21.44
2023-05-09T16:14:36.859Z,21.60
2023-05-09T16:17:04.015Z,21.83
2023-05-09T16:19:30.930Z,21.60
2023-05-09T16:21:57.337Z,21.86
2023-05-09T16:24:24.012Z,21.87
2023-05-09T16:26:50.414Z,21.85
2023-05-09T16:29:16.762Z,21.95
2023-05-09T16:31:45.396Z,22.17
2023-05-09T16:34:11.950Z,21.83
2023-05-09T16:36:39.353Z,21.75
2023-05-09T16:39:07.806Z,21.74
2023-05-09T16:41:34.145Z,21.48
2023-05-09T16:44:00.514Z,21.71
2023-05-09T16:46:26.891Z,21.64
2023-05-09T16:48:53.362Z,21.70
2023-05-09T16:51:19.743Z,21.27
2023-05-09T16:53:46.661Z,21.55
2023-05-09T16:56:13.297Z,21.72
2023-05-09T16:58:39.682Z,21.64
2023-05-09T17:01:07.068Z,21.27
2023-05-09T17:03:33.415Z,21.46
2023-05-09T17:05:59.766Z,21.32
2023-05-09T17:08:26.560Z,21.27
2023-05-09T17:10:53.537Z,21.22
2023-05-09T17:13:20.001Z,21.13
2023-05-09T17:15:46.514Z,21.06
2023-05-09T17:18:17.048Z,21.01
2023-05-09T17:20:46.100Z,21.01
2023-05-09T17:23:12.484Z,20.91
2023-05-09T17:25:39.291Z,20.79
2023-05-09T17:28:05.658Z,20.48
2023-05-09T17:30:32.281Z,20.69
2023-05-09T17:32:59.128Z,20.42
2023-05-09T17:35:25.881Z,20.28
2023-05-09T17:37:52.238Z,20.24
2023-05-09T17:40:19.114Z,20.11
2023-05-09T17:42:45.439Z,19.83
2023-05-09T17:45:12.835Z,19.92
2023-05-09T17:47:39.315Z,19.63
2023-05-09T17:50:07.152Z,19.45
2023-05-09T17:52:34.268Z,19.57
2023-05-09T17:55:01.889Z,19.43
2023-05-09T17:57:28.247Z,19.57
2023-05-09T17:59:54.605Z,19.33
2023-05-09T18:02:24.278Z,19.23
2023-05-09T18:04:51.113Z,19.14
2023-05-09T18:07:17.806Z,19.08
2023-05-09T18:09:44.138Z,19.14
2023-05-09T18:12:10.546Z,19.04
2023-05-09T18:14:39.593Z,19.19
2023-05-09T18:17:05.915Z,19.04
2023-05-09T18:19:33.075Z,18.93
2023-05-09T18:21:59.937Z,18.82
2023-05-09T18:24:26.301Z,18.82
2023-05-09T18:26:52.721Z,18.69
2023-05-09T18:29:20.003Z,18.69
2023-05-09T18:31:46.435Z,18.72
2023-05-09T18:34:13.005Z,18.67
2023-05-09T18:36:39.898Z,18.68
2023-05-09T18:39:06.232Z,18.57
2023-05-09T18:41:33.852Z,18.55
2023-05-09T18:44:00.772Z,18.24
2023-05-09T18:46:27.861Z,18.19
2023-05-09T18:48:54.661Z,18.01
2023-05-09T18:51:21.887Z,17.91
2023-05-09T18:53:48.401Z,17.87
2023-05-09T18:56:14.814Z,17.79
2023-05-09T18:58:41.864Z,17.70
2023-05-09T19:01:11.323Z,17.54
2023-05-09T19:03:44.123Z,17.42
2023-05-09T19:06:12.844Z,17.32
2023-05-09T19:08:43.215Z,16.85
2023-05-09T19:11:11.851Z,16.17
2023-05-09T19:13:40.015Z,15.35
2023-05-09T19:16:07.702Z,14.85
2023-05-09T19:18:35.084Z,14.37
2023-05-09T19:21:01.596Z,14.07
2023-05-09T19:23:28.134Z,14.07
2023-05-09T19:25:55.268Z,14.06
2023-05-09T19:28:22.863Z,13.89
2023-05-09T19:30:50.391Z,14.01
2023-05-09T19:33:17.056Z,14.21
2023-05-09T19:35:44.115Z,14.30
2023-05-09T19:38:13.397Z,14.37
2023-05-09T19:40:40.178Z,14.41
2023-05-09T19:43:07.083Z,14.47
2023-05-09T19:45:33.407Z,14.55
2023-05-09T19:47:59.797Z,14.55
2023-05-09T19:50:26.860Z,14.45
2023-05-09T19:52:53.191Z,14.18
2023-05-09T19:55:19.579Z,14.00
2023-05-09T19:57:46.305Z,14.05
2023-05-09T20:00:14.174Z,13.75
2023-05-09T20:02:41.670Z,13.60
2023-05-09T20:05:08.488Z,13.81
2023-05-09T20:07:34.798Z,13.88
2023-05-09T20:10:01.658Z,14.04
2023-05-09T20:12:30.160Z,14.08
2023-05-09T20:14:56.897Z,14.07
2023-05-09T20:17:23.330Z,14.14
2023-05-09T20:19:50.098Z,14.21
2023-05-09T20:22:16.749Z,14.27
2023-05-09T20:24:43.130Z,14.09
2023-05-09T20:27:10.007Z,13.88
2023-05-09T20:29:36.365Z,13.93
2023-05-09T20:32:02.814Z,13.82
2023-05-09T20:34:29.629Z,13.68
2023-05-09T20:36:55.937Z,13.80
2023-05-09T20:39:23.097Z,13.81
2023-05-09T20:41:50.804Z,13.82
2023-05-09T20:44:18.974Z,13.81
2023-05-09T20:46:45.616Z,13.77
2023-05-09T20:49:12.989Z,13.72
2023-05-09T20:51:39.523Z,13.53
2023-05-09T20:54:05.985Z,13.57
2023-05-09T20:56:35.772Z,13.67
2023-05-09T20:59:03.727Z,13.63
2023-05-09T21:01:37.484Z,13.73
2023-05-09T21:04:05.473Z,13.58
2023-05-09T21:06:33.362Z,13.59
2023-05-09T21:09:00.135Z,13.49
2023-05-09T21:11:26.462Z,13.47
2023-05-09T21:13:53.251Z,13.48
2023-05-09T21:16:19.585Z,13.42
2023-05-09T21:18:46.144Z,13.33
2023-05-09T21:21:13.146Z,13.16
2023-05-09T21:23:39.558Z,13.15
2023-05-09T21:26:05.899Z,13.22
2023-05-09T21:28:33.265Z,13.20
2023-05-09T21:31:01.466Z,13.16
2023-05-09T21:33:27.948Z,13.20
2023-05-09T21:35:54.865Z,13.15
2023-05-09T21:38:21.208Z,13.08
2023-05-09T21:40:47.552Z,13.06
2023-05-09T21:43:15.739Z,13.13
2023-05-09T21:45:42.080Z,13.01
2023-05-09T21:48:08.422Z,13.06
2023-05-09T21:50:35.225Z,13.06
2023-05-09T21:53:01.997Z,13.01
2023-05-09T21:55:28.420Z,12.97
2023-05-09T21:57:54.822Z,13.02
2023-05-09T22:00:21.553Z,13.03
2023-05-09T22:02:48.102Z,12.99
2023-05-09T22:05:14.857Z,12.94
2023-05-09T22:07:41.183Z,12.92
2023-05-09T22:10:08.163Z,12.97
2023-05-09T22:12:34.897Z,12.90
2023-05-09T22:15:01.745Z,12.94
2023-05-09T22:17:28.084Z,12.91
2023-05-09T22:19:54.429Z,12.91
2023-05-09T22:22:21.724Z,12.85
2023-05-09T22:24:49.537Z,12.79
2023-05-09T22:27:15.931Z,12.82
2023-05-09T22:29:42.795Z,12.83
2023-05-09T22:32:09.295Z,12.70
2023-05-09T22:34:35.773Z,12.62
2023-05-09T22:37:02.511Z,12.59
2023-05-09T22:39:29.674Z,12.63
2023-05-09T22:41:56.189Z,12.62
2023-05-09T22:44:23.003Z,12.67
2023-05-09T22:46:49.409Z,12.60
2023-05-09T22:49:15.854Z,12.59
2023-05-09T22:51:42.570Z,12.62
2023-05-09T22:54:09.016Z,12.59
2023-05-09T22:56:35.367Z,12.61
2023-05-09T22:59:01.923Z,12.63
2023-05-09T23:01:28.289Z,12.64
2023-05-09T23:03:55.023Z,12.62
2023-05-09T23:06:21.337Z,12.59
2023-05-09T23:08:48.436Z,12.57
2023-05-09T23:11:15.156Z,12.54
2023-05-09T23:13:42.150Z,12.56
2023-05-09T23:16:09.004Z,12.61
2023-05-09T23:18:35.698Z,12.63
2023-05-09T23:21:02.040Z,12.68
2023-05-09T23:23:29.072Z,12.62
2023-05-09T23:25:55.387Z,12.56
2023-05-09T23:28:24.960Z,12.50
2023-05-09T23:30:53.592Z,12.52
2023-05-09T23:33:20.315Z,12.54
2023-05-09T23:35:47.385Z,12.50
2023-05-09T23:38:14.410Z,12.49
2023-05-09T23:40:44.085Z,12.49
2023-05-09T23:43:10.393Z,12.52
2023-05-09T23:45:37.089Z,12.55
2023-05-09T23:48:03.998Z,12.58
2023-05-09T23:50:30.981Z,12.53
2023-05-09T23:52:57.309Z,12.52
2023-05-09T23:55:24.554Z,12.47
2023-05-09T23:57:50.882Z,12.42
